Time;durP1;ratioP1;P1;durP2;ratioP2;P2;SDS_P1;SDS_P2;PMS_P1;PMS_P2;Temp;Humidity;BMP_temperature;BMP_pressure;BME280_temperature;BME280_humidity;BME280_pressure;Samples;Min_cycle;Max_cycle;Signal;HPM_P1;HPM_P2
2021/06/28 00:00:43;;;;;;;8.40;7.00;;;17.20;89.80;;;;;;5016440;28;20040;-53
2021/06/28 00:03:10;;;;;;;8.63;6.57;;;17.20;90.00;;;;;;5017434;28;20486;-52
2021/06/28 00:05:35;;;;;;;10.85;7.63;;;17.10;90.00;;;;;;5017597;28;20038;-53
2021/06/28 00:08:01;;;;;;;9.00;7.30;;;17.10;89.90;;;;;;5017473;28;20053;-53
2021/06/28 00:10:30;;;;;;;10.30;7.50;;;17.10;89.90;;;;;;5027284;28;20122;-52
2021/06/28 00:12:58;;;;;;;10.43;7.88;;;17.00;90.20;;;;;;5034724;28;20038;-53
2021/06/28 00:15:29;;;;;;;10.27;8.10;;;17.00;90.30;;;;;;5015872;28;20437;-53
2021/06/28 00:17:56;;;;;;;9.23;8.25;;;17.00;90.20;;;;;;5016917;28;20104;-52
2021/06/28 00:20:23;;;;;;;10.93;7.72;;;16.90;90.40;;;;;;5017015;28;20069;-52
2021/06/28 00:22:49;;;;;;;12.73;8.02;;;16.90;90.70;;;;;;5016865;28;20494;-52
2021/06/28 00:25:20;;;;;;;11.45;7.70;;;16.90;90.60;;;;;;5000520;28;20121;-50
2021/06/28 00:27:46;;;;;;;11.13;7.78;;;17.00;90.90;;;;;;5001121;28;20077;-51
2021/06/28 00:30:16;;;;;;;10.35;8.07;;;17.00;90.60;;;;;;4981535;28;20041;-53
2021/06/28 00:32:43;;;;;;;11.65;8.25;;;17.00;90.40;;;;;;5011753;28;20038;-53
2021/06/28 00:35:09;;;;;;;10.68;8.73;;;16.90;90.60;;;;;;5018713;28;20045;-53
2021/06/28 00:37:36;;;;;;;12.02;8.00;;;16.90;90.60;;;;;;5018171;28;20046;-51
2021/06/28 00:40:05;;;;;;;12.00;8.80;;;16.90;90.70;;;;;;5018310;28;20038;-53
2021/06/28 00:42:31;;;;;;;12.15;8.82;;;16.90;90.90;;;;;;5017762;28;20065;-52
2021/06/28 00:44:57;;;;;;;15.68;9.20;;;16.90;90.80;;;;;;5000762;28;20414;-53
2021/06/28 00:47:23;;;;;;;12.63;8.85;;;16.90;90.80;;;;;;5017753;28;20041;-53
2021/06/28 00:49:49;;;;;;;11.57;8.82;;;16.90;90.70;;;;;;5018575;28;20045;-53
2021/06/28 00:52:16;;;;;;;12.35;9.35;;;16.80;90.80;;;;;;4983715;28;20060;-52
2021/06/28 00:54:43;;;;;;;11.57;9.02;;;16.80;91.00;;;;;;5006728;28;20066;-50
2021/06/28 00:57:09;;;;;;;12.00;9.02;;;16.90;90.70;;;;;;5006476;28;20133;-52
2021/06/28 00:59:35;;;;;;;12.27;9.10;;;16.90;90.80;;;;;;5010743;28;20068;-50
2021/06/28 01:02:03;;;;;;;14.18;10.00;;;16.90;90.90;;;;;;5009754;28;20069;-51
2021/06/28 01:04:37;;;;;;;12.20;9.43;;;17.00;90.50;;;;;;4989252;28;20042;-53
2021/06/28 01:07:03;;;;;;;12.85;10.10;;;16.90;90.70;;;;;;5013433;28;20041;-52
2021/06/28 01:09:28;;;;;;;14.30;9.32;;;16.90;90.70;;;;;;5012569;28;20774;-52
2021/06/28 01:11:54;;;;;;;13.35;9.48;;;16.90;90.90;;;;;;5005109;28;20388;-50
2021/06/28 01:14:20;;;;;;;12.82;9.80;;;16.80;90.90;;;;;;4986664;28;20106;-50
2021/06/28 01:16:46;;;;;;;16.42;10.95;;;16.70;91.20;;;;;;5001013;28;20042;-54
2021/06/28 01:19:13;;;;;;;13.60;9.95;;;16.70;91.40;;;;;;5013085;28;20475;-50
2021/06/28 01:21:41;;;;;;;14.55;10.15;;;16.70;91.40;;;;;;5007537;28;20065;-53
2021/06/28 01:24:07;;;;;;;12.00;9.65;;;16.70;91.40;;;;;;5014205;28;20045;-52
2021/06/28 01:26:33;;;;;;;14.85;10.88;;;16.80;91.30;;;;;;5000583;28;20042;-48
2021/06/28 01:28:59;;;;;;;13.73;10.55;;;16.70;91.30;;;;;;4993101;28;20092;-52
2021/06/28 01:31:25;;;;;;;14.30;10.13;;;16.80;91.20;;;;;;5015144;28;20049;-53
2021/06/28 01:33:50;;;;;;;13.35;10.02;;;16.80;91.30;;;;;;5017997;28;20034;-53
2021/06/28 01:36:16;;;;;;;14.63;10.93;;;16.80;91.20;;;;;;5008747;28;20066;-52
2021/06/28 01:38:42;;;;;;;14.43;10.45;;;16.80;91.10;;;;;;5014776;28;20617;-49
2021/06/28 01:41:08;;;;;;;13.68;10.82;;;16.80;91.20;;;;;;5012430;28;20392;-53
2021/06/28 01:43:34;;;;;;;15.15;10.65;;;16.80;91.40;;;;;;4989697;28;20042;-53
2021/06/28 01:45:59;;;;;;;17.05;11.20;;;16.70;91.40;;;;;;5013397;28;20045;-52
2021/06/28 01:48:25;;;;;;;13.80;10.77;;;16.60;91.50;;;;;;5017639;28;20466;-52
2021/06/28 01:50:52;;;;;;;16.08;11.25;;;16.70;91.60;;;;;;5018868;28;20053;-49
2021/06/28 01:53:18;;;;;;;15.63;11.23;;;16.60;91.70;;;;;;5013384;28;20045;-50
2021/06/28 01:55:44;;;;;;;15.05;10.65;;;16.70;91.70;;;;;;5013120;28;20462;-50
2021/06/28 01:58:13;;;;;;;15.77;11.48;;;16.70;91.80;;;;;;4994883;28;20042;-49
2021/06/28 02:00:43;;;;;;;16.60;10.80;;;16.70;91.60;;;;;;5011408;28;20124;-49
2021/06/28 02:03:09;;;;;;;14.15;11.02;;;16.70;92.00;;;;;;5013193;28;20034;-49
2021/06/28 02:05:40;;;;;;;18.30;10.82;;;16.60;92.00;;;;;;5017064;28;20089;-49
2021/06/28 02:08:07;;;;;;;14.70;10.32;;;16.60;92.00;;;;;;5012979;28;20049;-52
2021/06/28 02:10:35;;;;;;;15.27;11.27;;;16.50;92.00;;;;;;5000321;28;20033;-48
2021/06/28 02:13:01;;;;;;;13.55;10.23;;;16.50;92.10;;;;;;5015138;28;20579;-48
2021/06/28 02:15:29;;;;;;;16.50;10.90;;;16.60;91.90;;;;;;5014230;28;20038;-48
2021/06/28 02:17:56;;;;;;;14.35;11.07;;;16.60;92.00;;;;;;5014370;28;20073;-49
2021/06/28 02:20:22;;;;;;;14.75;10.70;;;16.50;92.10;;;;;;5013612;28;20033;-52
2021/06/28 02:22:50;;;;;;;16.65;11.00;;;16.50;92.30;;;;;;5006640;28;20101;-51
2021/06/28 02:25:17;;;;;;;18.48;10.98;;;16.60;92.00;;;;;;5015833;28;20307;-49
2021/06/28 02:27:43;;;;;;;15.82;11.32;;;16.50;92.30;;;;;;5030198;28;20405;-49
2021/06/28 02:30:15;;;;;;;14.30;10.20;;;16.50;92.30;;;;;;4997229;28;20080;-50
2021/06/28 02:32:41;;;;;;;;;;;16.50;92.40;;;;;;5007616;28;20549;-48
2021/06/28 02:35:09;;;;;;;16.02;11.27;;;16.50;92.20;;;;;;4987237;28;19921;-49
2021/06/28 02:37:36;;;;;;;14.73;11.52;;;16.50;92.50;;;;;;5012006;28;20038;-51
2021/06/28 02:40:05;;;;;;;18.73;12.07;;;16.40;92.30;;;;;;5014870;28;20115;-48
2021/06/28 02:42:31;;;;;;;18.23;11.82;;;16.40;92.60;;;;;;5019807;28;20037;-52
2021/06/28 02:44:56;;;;;;;19.77;12.25;;;16.50;92.60;;;;;;5002053;28;20556;-51
2021/06/28 02:47:22;;;;;;;17.67;11.65;;;16.40;92.70;;;;;;5024372;28;20046;-48
2021/06/28 02:49:48;;;;;;;18.35;12.15;;;16.40;92.60;;;;;;4984316;28;20049;-48
2021/06/28 02:52:14;;;;;;;16.63;12.43;;;16.40;92.80;;;;;;5020616;28;20042;-50
2021/06/28 02:54:40;;;;;;;20.35;11.90;;;16.50;92.60;;;;;;5013242;28;20344;-52
2021/06/28 02:57:06;;;;;;;21.88;12.73;;;16.50;92.60;;;;;;4997201;28;20109;-50
2021/06/28 02:59:32;;;;;;;17.23;12.27;;;16.40;92.80;;;;;;5014505;28;20121;-53
2021/06/28 03:01:58;;;;;;;17.75;12.32;;;16.40;93.00;;;;;;5022518;28;20065;-49
2021/06/28 03:04:24;;;;;;;16.25;11.98;;;16.40;92.90;;;;;;5018106;28;20490;-48
2021/06/28 03:06:49;;;;;;;17.73;12.38;;;16.50;92.80;;;;;;5013503;28;20107;-53
2021/06/28 03:09:15;;;;;;;19.90;12.23;;;16.40;92.90;;;;;;5012845;28;20042;-49
2021/06/28 03:11:41;;;;;;;17.23;12.23;;;16.40;93.10;;;;;;5014682;28;20034;-51
2021/06/28 03:14:07;;;;;;;19.52;13.13;;;16.40;93.00;;;;;;4993089;28;20510;-49
2021/06/28 03:16:32;;;;;;;18.70;12.18;;;16.30;93.10;;;;;;5020348;28;20041;-50
2021/06/28 03:18:59;;;;;;;19.13;12.80;;;16.30;93.20;;;;;;5012098;28;20038;-49
2021/06/28 03:21:25;;;;;;;18.38;12.40;;;16.30;93.30;;;;;;5014391;28;20049;-50
2021/06/28 03:23:51;;;;;;;19.17;12.13;;;16.30;93.40;;;;;;4961299;28;20058;-48
2021/06/28 03:26:17;;;;;;;17.80;11.77;;;16.40;93.10;;;;;;5006414;28;20045;-50
2021/06/28 03:28:43;;;;;;;20.58;12.15;;;16.40;93.20;;;;;;4995616;28;20038;-49
2021/06/28 03:31:10;;;;;;;15.93;11.93;;;16.40;93.20;;;;;;5013189;28;20053;-49
2021/06/28 03:33:38;;;;;;;16.30;11.73;;;16.40;93.30;;;;;;4997927;28;20030;-51
2021/06/28 03:36:04;;;;;;;16.20;12.13;;;16.40;93.30;;;;;;4984698;28;20496;-51
2021/06/28 03:38:30;;;;;;;17.63;12.07;;;16.40;93.20;;;;;;4990029;28;20073;-49
2021/06/28 03:40:56;;;;;;;20.55;12.00;;;16.30;93.20;;;;;;5013145;28;20466;-50
2021/06/28 03:43:22;;;;;;;16.58;11.52;;;16.40;93.40;;;;;;5014855;28;20064;-51
2021/06/28 03:45:48;;;;;;;17.30;11.35;;;16.50;93.20;;;;;;5020068;28;20474;-48
2021/06/28 03:48:14;;;;;;;16.90;12.02;;;16.40;93.10;;;;;;5024672;28;20658;-50
2021/06/28 03:50:41;;;;;;;19.67;11.82;;;16.40;93.30;;;;;;4994240;28;20042;-49
2021/06/28 03:53:08;;;;;;;15.63;11.85;;;16.50;93.30;;;;;;5014800;28;20069;-52
2021/06/28 03:55:34;;;;;;;20.48;12.35;;;16.50;93.20;;;;;;5013698;28;20064;-51
2021/06/28 03:58:00;;;;;;;20.17;11.73;;;16.50;93.10;;;;;;4994022;28;20050;-53
2021/06/28 04:00:27;;;;;;;16.75;11.75;;;16.50;93.20;;;;;;5011818;28;20034;-48
2021/06/28 04:02:54;;;;;;;18.75;12.40;;;16.40;93.10;;;;;;5010725;28;20406;-49
2021/06/28 04:05:22;;;;;;;17.40;12.32;;;16.40;93.20;;;;;;5010075;28;20069;-48
2021/06/28 04:07:48;;;;;;;19.67;12.00;;;16.50;93.50;;;;;;5012459;28;20041;-49
2021/06/28 04:10:17;;;;;;;18.08;12.48;;;16.50;93.30;;;;;;5013380;28;20034;-48
2021/06/28 04:12:46;;;;;;;17.65;12.10;;;16.50;93.10;;;;;;5013855;28;20034;-51
2021/06/28 04:15:13;;;;;;;18.55;12.20;;;16.50;93.30;;;;;;5016224;28;20030;-51
2021/06/28 04:17:40;;;;;;;17.90;12.50;;;16.50;93.10;;;;;;5013622;28;20511;-51
2021/06/28 04:20:08;;;;;;;18.30;12.48;;;16.50;93.30;;;;;;4997768;28;20111;-53
2021/06/28 04:22:34;;;;;;;18.35;12.45;;;16.60;93.00;;;;;;5018312;28;20679;-50
2021/06/28 04:25:00;;;;;;;18.17;12.45;;;16.60;92.80;;;;;;5013625;28;20104;-49
2021/06/28 04:27:26;;;;;;;16.40;12.18;;;16.60;92.90;;;;;;5013788;28;20033;-49
2021/06/28 04:29:51;;;;;;;19.75;13.23;;;16.50;93.00;;;;;;4999619;28;20037;-49
2021/06/28 04:32:17;;;;;;;21.75;13.02;;;16.50;93.20;;;;;;4995847;28;20081;-51
2021/06/28 04:34:46;;;;;;;18.15;12.75;;;16.50;93.10;;;;;;5007434;28;20050;-50
2021/06/28 04:37:12;;;;;;;17.40;13.32;;;16.70;93.10;;;;;;5016528;28;20103;-50
2021/06/28 04:39:39;;;;;;;20.20;12.05;;;16.60;93.20;;;;;;5015237;28;20041;-49
2021/06/28 04:42:05;;;;;;;18.70;13.20;;;16.60;92.90;;;;;;5010813;28;20132;-49
2021/06/28 04:44:31;;;;;;;18.40;12.70;;;16.60;93.00;;;;;;5013179;28;20498;-50
2021/06/28 04:46:57;;;;;;;18.45;13.30;;;16.60;93.10;;;;;;5018971;28;20104;-49
2021/06/28 04:49:23;;;;;;;19.05;13.00;;;16.60;93.00;;;;;;5016844;28;20120;-49
2021/06/28 04:51:48;;;;;;;18.08;13.30;;;16.50;93.20;;;;;;5008827;28;20049;-49
2021/06/28 04:54:14;;;;;;;17.73;13.60;;;16.50;93.40;;;;;;5013060;28;20072;-49
2021/06/28 04:56:40;;;;;;;19.52;13.70;;;16.50;93.40;;;;;;5015592;28;20041;-53
2021/06/28 04:59:07;;;;;;;18.40;13.50;;;16.50;93.30;;;;;;5015534;28;20034;-52
2021/06/28 05:01:33;;;;;;;18.73;13.15;;;16.60;93.40;;;;;;5013010;28;20045;-50
2021/06/28 05:03:59;;;;;;;23.58;13.65;;;16.60;93.20;;;;;;5014472;28;20050;-48
2021/06/28 05:06:24;;;;;;;22.02;13.65;;;16.60;93.20;;;;;;5014160;28;20128;-49
2021/06/28 05:08:50;;;;;;;21.25;12.88;;;16.60;93.10;;;;;;4996576;28;20060;-50
2021/06/28 05:11:16;;;;;;;20.70;13.27;;;16.80;92.70;;;;;;5020033;28;20132;-49
2021/06/28 05:13:42;;;;;;;19.02;12.52;;;16.80;92.90;;;;;;5020139;28;20053;-49
2021/06/28 05:16:08;;;;;;;15.90;12.13;;;16.70;92.90;;;;;;5018316;28;20671;-50
2021/06/28 05:18:33;;;;;;;20.90;14.23;;;16.70;92.80;;;;;;5014359;28;20065;-49
2021/06/28 05:21:00;;;;;;;19.42;13.68;;;16.70;93.10;;;;;;5018790;28;20042;-48
2021/06/28 05:23:26;;;;;;;20.90;13.10;;;16.70;93.00;;;;;;4982192;28;20061;-48
2021/06/28 05:25:52;;;;;;;18.10;12.27;;;16.70;93.20;;;;;;5017490;28;20053;-50
2021/06/28 05:28:18;;;;;;;19.05;12.75;;;16.70;93.10;;;;;;5017074;28;20041;-49
2021/06/28 05:30:46;;;;;;;16.13;12.32;;;16.80;92.90;;;;;;5015363;28;20112;-50
2021/06/28 05:33:12;;;;;;;20.15;13.48;;;16.90;92.90;;;;;;4996929;28;20042;-48
2021/06/28 05:35:42;;;;;;;17.75;13.38;;;16.90;92.80;;;;;;5017059;28;20046;-51
2021/06/28 05:38:09;;;;;;;17.42;13.50;;;16.80;92.80;;;;;;4999363;28;20068;-52
2021/06/28 05:40:34;;;;;;;17.52;12.85;;;16.90;92.70;;;;;;5020219;28;20488;-49
2021/06/28 05:43:00;;;;;;;19.33;13.10;;;16.90;92.80;;;;;;5020268;28;20088;-48
2021/06/28 05:45:26;;;;;;;18.60;13.05;;;16.90;93.00;;;;;;4998374;28;20115;-48
2021/06/28 05:47:52;;;;;;;16.58;12.38;;;17.10;92.50;;;;;;5017586;28;20471;-52
2021/06/28 05:50:18;;;;;;;18.67;12.70;;;17.20;92.50;;;;;;5013497;28;20050;-51
2021/06/28 05:52:46;;;;;;;18.45;11.70;;;17.40;92.30;;;;;;5002435;28;20050;-49
2021/06/28 05:55:12;;;;;;;17.73;12.02;;;17.50;92.00;;;;;;4981671;28;20418;-50
2021/06/28 05:57:38;;;;;;;15.98;12.02;;;17.60;91.70;;;;;;5025836;28;20045;-49
2021/06/28 06:00:07;;;;;;;16.90;11.52;;;17.70;91.80;;;;;;5018200;28;20514;-52
2021/06/28 06:02:33;;;;;;;19.38;11.70;;;18.00;91.20;;;;;;5024128;28;20048;-50
2021/06/28 06:04:59;;;;;;;16.00;11.88;;;18.10;90.90;;;;;;5031653;28;20049;-51
2021/06/28 06:07:25;;;;;;;16.60;11.65;;;18.10;91.10;;;;;;5023081;28;20049;-48
2021/06/28 06:09:51;;;;;;;17.33;12.35;;;18.20;90.30;;;;;;5007958;28;20119;-49
2021/06/28 06:12:16;;;;;;;18.48;12.02;;;18.10;90.40;;;;;;5030770;28;20038;-49
2021/06/28 06:14:42;;;;;;;17.23;11.45;;;18.20;90.40;;;;;;5016195;28;20040;-49
2021/06/28 06:17:08;;;;;;;16.95;12.20;;;18.20;90.30;;;;;;5016058;28;20077;-48
2021/06/28 06:19:34;;;;;;;16.38;11.88;;;18.20;90.50;;;;;;5023428;28;20056;-49
2021/06/28 06:22:00;;;;;;;15.00;12.40;;;18.20;90.50;;;;;;5033419;28;20041;-53
2021/06/28 06:24:29;;;;;;;19.20;12.55;;;18.20;90.90;;;;;;5015478;28;20068;-52
2021/06/28 06:26:56;;;;;;;16.52;12.18;;;18.20;90.80;;;;;;5029930;28;20042;-50
2021/06/28 06:29:24;;;;;;;17.38;12.35;;;18.30;90.40;;;;;;5031633;28;20041;-52
2021/06/28 06:31:51;;;;;;;17.60;12.30;;;18.30;90.60;;;;;;5017623;28;20502;-48
2021/06/28 06:34:17;;;;;;;15.10;11.95;;;18.20;91.00;;;;;;5015304;28;20107;-48
2021/06/28 06:36:43;;;;;;;17.58;11.73;;;18.30;91.10;;;;;;5017931;28;20037;-48
2021/06/28 06:39:09;;;;;;;16.30;12.93;;;18.30;90.90;;;;;;5017425;28;20574;-49
2021/06/28 06:41:35;;;;;;;18.98;12.40;;;18.50;90.80;;;;;;5022303;28;20524;-50
2021/06/28 06:44:01;;;;;;;16.38;12.38;;;18.50;90.50;;;;;;5035911;28;20048;-50
2021/06/28 06:46:28;;;;;;;16.38;11.65;;;18.50;90.60;;;;;;5029642;28;20556;-52
2021/06/28 06:48:53;;;;;;;16.83;11.93;;;18.50;90.90;;;;;;5032624;28;20127;-51
2021/06/28 06:51:22;;;;;;;18.88;11.75;;;18.60;90.40;;;;;;5006903;28;20414;-51
2021/06/28 06:53:48;;;;;;;15.30;12.00;;;18.70;90.60;;;;;;5020908;28;20156;-53
2021/06/28 06:56:14;;;;;;;18.38;12.57;;;18.70;90.00;;;;;;5004567;28;20050;-53
2021/06/28 06:58:40;;;;;;;17.42;12.23;;;18.70;90.00;;;;;;5029512;28;20029;-50
2021/06/28 07:01:26;;;;;;;17.48;11.90;;;18.70;90.50;;;;;;5013881;28;20099;-50
2021/06/28 07:03:51;;;;;;;16.98;12.32;;;18.80;90.10;;;;;;5029578;28;20033;-51
2021/06/28 07:06:17;;;;;;;15.43;12.30;;;18.90;90.20;;;;;;5024495;28;20080;-53
2021/06/28 07:08:43;;;;;;;15.88;11.80;;;19.00;90.40;;;;;;5010202;28;20047;-53
2021/06/28 07:11:12;;;;;;;15.73;11.77;;;19.10;90.30;;;;;;5019889;28;20040;-53
2021/06/28 07:13:40;;;;;;;15.15;11.32;;;19.20;90.00;;;;;;5026570;28;20042;-53
2021/06/28 07:16:07;;;;;;;13.98;11.15;;;19.40;90.50;;;;;;5012901;28;20064;-54
2021/06/28 07:18:33;;;;;;;14.82;11.70;;;19.50;90.10;;;;;;5028726;28;20041;-53
2021/06/28 07:20:59;;;;;;;15.13;10.85;;;19.70;90.00;;;;;;5028663;28;20041;-53
2021/06/28 07:23:33;;;;;;;14.65;11.27;;;19.80;88.00;;;;;;5011310;28;20055;-52
2021/06/28 07:25:59;;;;;;;14.65;11.32;;;20.00;88.00;;;;;;5032983;28;20042;-50
2021/06/28 07:28:28;;;;;;;17.30;11.20;;;20.10;84.80;;;;;;5031320;28;20041;-52
2021/06/28 07:30:57;;;;;;;14.15;10.82;;;20.10;85.90;;;;;;5012242;28;20501;-53
2021/06/28 07:33:28;;;;;;;12.38;9.88;;;20.20;86.90;;;;;;5032181;28;20958;-54
2021/06/28 07:35:55;;;;;;;16.08;10.35;;;20.30;87.30;;;;;;5009559;28;20104;-53
2021/06/28 07:38:21;;;;;;;16.17;10.38;;;20.40;85.70;;;;;;5029636;28;20092;-51
2021/06/28 07:41:00;;;;;;;12.98;9.77;;;20.50;85.30;;;;;;5009708;28;20071;-52
2021/06/28 07:43:27;;;;;;;15.80;11.20;;;20.60;86.30;;;;;;5031887;28;20487;-50
2021/06/28 07:45:54;;;;;;;13.60;10.57;;;20.70;84.50;;;;;;5023923;28;20069;-54
2021/06/28 07:48:20;;;;;;;18.77;10.30;;;20.80;84.50;;;;;;5015120;28;20048;-53
2021/06/28 07:50:46;;;;;;;14.80;10.25;;;21.00;84.50;;;;;;5020787;28;20033;-52
2021/06/28 07:53:14;;;;;;;15.30;10.38;;;21.10;83.70;;;;;;5016285;28;20044;-48
2021/06/28 07:55:40;;;;;;;16.70;10.77;;;21.20;83.20;;;;;;5015945;28;20410;-48
2021/06/28 07:58:10;;;;;;;14.23;9.98;;;21.20;82.20;;;;;;5016330;28;20058;-51
2021/06/28 08:00:36;;;;;;;16.15;10.13;;;21.20;83.80;;;;;;5007171;28;20038;-51
2021/06/28 08:03:05;;;;;;;15.60;10.48;;;21.40;83.70;;;;;;5011800;28;20042;-49
2021/06/28 08:05:31;;;;;;;12.98;9.13;;;21.50;82.00;;;;;;4995942;28;20585;-48
2021/06/28 08:07:57;;;;;;;11.63;8.68;;;21.60;82.60;;;;;;5015233;28;20112;-49
2021/06/28 08:10:22;;;;;;;11.75;9.20;;;21.70;81.90;;;;;;4997455;28;20030;-48
2021/06/28 08:12:49;;;;;;;13.32;10.23;;;21.80;81.20;;;;;;5015786;28;20045;-51
2021/06/28 08:15:22;;;;;;;12.52;9.77;;;21.90;80.10;;;;;;5019195;28;20038;-52
2021/06/28 08:17:49;;;;;;;14.20;9.93;;;22.00;81.20;;;;;;5019966;28;20129;-51
2021/06/28 08:20:17;;;;;;;18.05;9.82;;;22.10;79.40;;;;;;4998785;28;20076;-53
2021/06/28 08:22:44;;;;;;;13.95;9.15;;;22.20;80.40;;;;;;5021152;28;20056;-50
2021/06/28 08:25:11;;;;;;;11.05;9.30;;;22.20;80.10;;;;;;4994314;28;20053;-49
2021/06/28 08:27:39;;;;;;;10.65;9.05;;;22.30;81.60;;;;;;5002434;28;20404;-52
2021/06/28 08:30:07;;;;;;;11.15;9.20;;;22.40;79.80;;;;;;5017576;28;20069;-50
2021/06/28 08:32:33;;;;;;;10.50;8.77;;;22.50;80.10;;;;;;5012686;28;20573;-49
2021/06/28 08:35:00;;;;;;;11.80;9.20;;;22.70;78.00;;;;;;5000405;28;20054;-48
2021/06/28 08:37:27;;;;;;;12.27;9.68;;;22.80;78.00;;;;;;5014724;28;20053;-48
2021/06/28 08:39:53;;;;;;;11.57;10.38;;;22.90;74.30;;;;;;5013952;28;20062;-49
2021/06/28 08:42:20;;;;;;;11.68;9.18;;;22.90;73.90;;;;;;5013378;28;20069;-48
2021/06/28 08:44:46;;;;;;;13.48;8.52;;;22.90;75.80;;;;;;5014451;28;20046;-49
2021/06/28 08:47:12;;;;;;;11.02;9.30;;;23.00;76.50;;;;;;5013793;28;20077;-51
2021/06/28 08:49:41;;;;;;;12.25;9.00;;;23.10;75.80;;;;;;5015122;28;20053;-49
2021/06/28 08:52:06;;;;;;;11.27;8.98;;;23.10;74.10;;;;;;5013879;28;20504;-48
2021/06/28 08:54:32;;;;;;;9.80;8.48;;;23.20;74.10;;;;;;5025502;28;20041;-49
2021/06/28 08:56:58;;;;;;;10.98;8.38;;;23.40;74.60;;;;;;5014774;28;20518;-50
2021/06/28 08:59:24;;;;;;;10.98;8.40;;;23.50;72.70;;;;;;5007309;28;20080;-49
2021/06/28 09:01:51;;;;;;;11.43;8.95;;;23.40;73.00;;;;;;5018729;28;20061;-48
2021/06/28 09:04:17;;;;;;;9.88;8.65;;;23.60;70.70;;;;;;5015614;28;20045;-49
2021/06/28 09:06:43;;;;;;;11.57;8.18;;;23.60;72.50;;;;;;5013580;28;20112;-51
2021/06/28 09:09:13;;;;;;;11.27;7.78;;;23.70;72.90;;;;;;5014055;28;20188;-52
2021/06/28 09:11:41;;;;;;;9.77;8.50;;;23.80;73.30;;;;;;5016544;28;20057;-53
2021/06/28 09:14:08;;;;;;;10.75;9.02;;;23.80;73.70;;;;;;5019639;28;20304;-54
2021/06/28 09:16:38;;;;;;;9.88;8.05;;;23.80;73.70;;;;;;5017618;28;20030;-52
2021/06/28 09:19:10;;;;;;;10.27;8.27;;;24.00;73.30;;;;;;5017405;28;20050;-51
2021/06/28 09:21:37;;;;;;;;;;;24.10;75.10;;;;;;5017174;28;20038;-51
2021/06/28 09:24:06;;;;;;;11.70;8.20;;;24.30;73.50;;;;;;5031736;28;20007;-48
2021/06/28 09:26:36;;;;;;;11.63;9.10;;;24.40;72.60;;;;;;5002317;28;20052;-51
2021/06/28 09:29:10;;;;;;;11.65;7.78;;;24.60;70.80;;;;;;5000620;28;20471;-49
2021/06/28 09:31:42;;;;;;;10.40;8.40;;;24.70;69.60;;;;;;5000173;28;20046;-51
2021/06/28 09:34:15;;;;;;;9.35;8.18;;;24.90;68.70;;;;;;5001276;28;20056;-52
2021/06/28 09:36:55;;;;;;;11.18;9.38;;;24.80;70.40;;;;;;5023594;28;20045;-49
2021/06/28 09:39:36;;;;;;;10.30;7.80;;;24.90;68.50;;;;;;5010844;28;20046;-48
2021/06/28 09:42:07;;;;;;;8.68;7.75;;;25.00;68.80;;;;;;5007441;28;20057;-53
2021/06/28 09:44:40;;;;;;;11.43;8.32;;;25.10;68.90;;;;;;5005593;28;20042;-49
2021/06/28 09:47:15;;;;;;;11.60;8.80;;;25.20;66.40;;;;;;4984616;28;20121;-49
2021/06/28 09:50:02;;;;;;;9.30;8.10;;;25.30;66.20;;;;;;5009064;28;20069;-49
2021/06/28 09:52:55;;;;;;;9.23;7.65;;;25.30;66.90;;;;;;4995252;28;20290;-52
2021/06/28 09:55:33;;;;;;;9.63;8.50;;;25.30;68.20;;;;;;5009418;28;20038;-50
2021/06/28 09:58:22;;;;;;;11.10;8.70;;;25.30;66.60;;;;;;5009201;28;20490;-52
2021/06/28 10:00:51;;;;;;;15.15;8.85;;;25.40;65.70;;;;;;5001175;28;20096;-50
2021/06/28 10:03:55;;;;;;;11.02;8.73;;;25.40;66.20;;;;;;5000927;28;20089;-51
2021/06/28 10:09:05;;;;;;;10.90;8.20;;;25.60;65.60;;;;;;4992557;28;20046;-51
2021/06/28 10:11:31;;;;;;;11.85;8.98;;;25.60;65.70;;;;;;5004820;28;20030;-52
2021/06/28 10:14:05;;;;;;;10.32;8.13;;;25.50;64.40;;;;;;5002016;28;20049;-50
2021/06/28 10:16:33;;;;;;;9.35;8.35;;;25.60;65.00;;;;;;5003645;28;20530;-52
2021/06/28 10:19:01;;;;;;;14.00;9.68;;;25.50;65.90;;;;;;4995205;28;20121;-51
2021/06/28 10:21:33;;;;;;;10.57;8.50;;;25.60;65.80;;;;;;4991976;28;20046;-49
2021/06/28 10:23:59;;;;;;;11.68;8.60;;;25.80;65.70;;;;;;5004525;28;20041;-52
2021/06/28 10:26:27;;;;;;;9.40;8.40;;;25.80;65.00;;;;;;5004275;28;20478;-51
2021/06/28 10:28:55;;;;;;;11.90;8.48;;;25.80;63.80;;;;;;5015070;28;20080;-49
2021/06/28 10:31:21;;;;;;;9.85;7.95;;;25.80;61.30;;;;;;5003739;28;20104;-52
2021/06/28 10:33:54;;;;;;;12.00;7.70;;;25.70;63.50;;;;;;5013972;28;20050;-51
2021/06/28 10:36:24;;;;;;;9.38;8.38;;;25.80;64.00;;;;;;4987935;28;20104;-52
2021/06/28 10:38:54;;;;;;;8.43;7.55;;;25.90;63.90;;;;;;5001247;28;20057;-53
2021/06/28 10:41:44;;;;;;;10.55;7.65;;;25.90;62.70;;;;;;5012980;28;20073;-50
2021/06/28 10:44:15;;;;;;;7.90;7.10;;;26.00;63.30;;;;;;5011637;28;20054;-51
2021/06/28 10:46:47;;;;;;;8.82;7.30;;;26.00;63.60;;;;;;4989603;28;20121;-50
2021/06/28 10:49:15;;;;;;;8.02;6.43;;;26.20;63.10;;;;;;4987385;28;20041;-53
2021/06/28 10:51:47;;;;;;;8.73;6.60;;;26.20;60.80;;;;;;5003928;28;20060;-50
2021/06/28 10:54:32;;;;;;;8.30;6.95;;;26.30;62.20;;;;;;4989517;28;20110;-50
2021/06/28 10:56:58;;;;;;;9.10;6.43;;;26.40;60.90;;;;;;5001376;28;20072;-53
2021/06/28 10:59:26;;;;;;;8.90;6.95;;;26.40;61.30;;;;;;4991822;28;20132;-51
2021/06/28 11:01:55;;;;;;;9.93;7.70;;;26.50;61.20;;;;;;4989947;28;20423;-53
2021/06/28 11:04:31;;;;;;;8.45;7.65;;;26.60;61.80;;;;;;5011113;28;20125;-50
2021/06/28 11:07:00;;;;;;;8.00;6.90;;;26.60;62.70;;;;;;5004989;28;20046;-52
2021/06/28 11:09:48;;;;;;;11.65;8.82;;;26.60;63.10;;;;;;5004548;28;20038;-52
2021/06/28 11:12:18;;;;;;;8.48;7.53;;;26.70;62.20;;;;;;4983453;28;20042;-53
2021/06/28 11:14:54;;;;;;;11.70;8.73;;;26.70;63.70;;;;;;5011152;28;20042;-50
2021/06/28 11:17:24;;;;;;;10.27;9.20;;;26.80;62.10;;;;;;4998322;28;20117;-49
2021/06/28 11:19:59;;;;;;;8.70;7.80;;;26.70;60.60;;;;;;4987774;28;20046;-53
2021/06/28 11:22:30;;;;;;;9.10;7.50;;;26.40;62.00;;;;;;5003610;28;20095;-55
2021/06/28 11:24:56;;;;;;;;;;;26.20;63.00;;;;;;5012531;28;20050;-50
2021/06/28 11:27:22;;;;;;;10.23;7.72;;;26.00;64.20;;;;;;5003527;28;19917;-50
2021/06/28 11:29:49;;;;;;;10.23;6.45;;;25.90;64.90;;;;;;5005841;28;20038;-49
2021/06/28 11:32:32;;;;;;;9.15;6.60;;;25.80;64.30;;;;;;5006464;28;20045;-52
2021/06/28 11:35:03;;;;;;;8.80;5.70;;;25.70;65.00;;;;;;5009167;28;20711;-52
2021/06/28 11:37:32;;;;;;;8.95;6.43;;;25.70;64.30;;;;;;4976310;28;20041;-50
2021/06/28 11:40:00;;;;;;;11.05;6.85;;;25.60;65.30;;;;;;4990215;28;20081;-52
2021/06/28 11:42:33;;;;;;;7.57;6.78;;;25.60;66.40;;;;;;4985720;28;20053;-51
2021/06/28 11:45:19;;;;;;;9.48;7.05;;;25.50;66.50;;;;;;4984255;28;20348;-50
2021/06/28 11:47:45;;;;;;;8.95;7.78;;;25.50;67.40;;;;;;5025427;28;20084;-50
2021/06/28 11:50:33;;;;;;;8.82;7.47;;;25.40;67.20;;;;;;5022790;28;20038;-53
2021/06/28 11:53:10;;;;;;;10.43;7.55;;;25.40;67.60;;;;;;5021211;28;20867;-50
2021/06/28 11:55:45;;;;;;;12.25;8.10;;;25.40;67.60;;;;;;4994393;28;20038;-54
2021/06/28 11:58:11;;;;;;;13.40;7.50;;;25.40;67.80;;;;;;5008745;28;20487;-48
2021/06/28 12:00:36;;;;;;;9.68;7.20;;;25.30;68.20;;;;;;5010206;28;20125;-52
2021/06/28 12:03:12;;;;;;;11.25;8.20;;;25.30;68.90;;;;;;4994173;28;20117;-54
2021/06/28 12:05:39;;;;;;;8.10;7.15;;;25.30;69.10;;;;;;5016220;28;20461;-53
2021/06/28 12:08:06;;;;;;;10.05;7.80;;;25.40;69.60;;;;;;5011507;28;20557;-53
2021/06/28 12:10:31;;;;;;;10.73;8.40;;;25.40;69.70;;;;;;5012356;28;20103;-49
2021/06/28 12:13:02;;;;;;;11.85;8.45;;;25.50;66.60;;;;;;4990818;28;20033;-50
2021/06/28 12:15:33;;;;;;;9.45;8.02;;;25.40;66.10;;;;;;5006952;28;20491;-50
2021/06/28 12:18:07;;;;;;;8.85;7.53;;;25.40;67.40;;;;;;5010598;28;20117;-52
2021/06/28 12:20:35;;;;;;;9.35;7.68;;;25.30;67.90;;;;;;5017465;28;20037;-54
2021/06/28 12:23:07;;;;;;;9.10;8.15;;;25.30;68.70;;;;;;5005766;28;20522;-54
2021/06/28 12:25:33;;;;;;;10.57;7.72;;;25.40;68.90;;;;;;5014336;28;20037;-53
2021/06/28 12:27:59;;;;;;;8.27;7.47;;;25.30;68.90;;;;;;4996268;28;20030;-54
2021/06/28 12:30:26;;;;;;;7.97;7.18;;;25.30;68.80;;;;;;4995800;28;20046;-54
2021/06/28 12:32:56;;;;;;;9.60;7.63;;;25.30;67.50;;;;;;4997722;28;20033;-52
2021/06/28 12:35:24;;;;;;;8.95;7.68;;;25.30;68.00;;;;;;4987257;28;20038;-51
2021/06/28 12:38:00;;;;;;;9.13;7.63;;;25.30;68.60;;;;;;5011819;28;20030;-53
2021/06/28 12:40:37;;;;;;;8.35;7.50;;;25.30;67.80;;;;;;5009061;28;20104;-51